METAR - Ísland

Uppfært síðast 24.05.2020 - kl. 23:38

SIGMET síðustu 6 klst.

Engin SIGMET skeyti bárust síðustu 6 klst.

METAR síðustu 3 klst

Flugv.TímiSkeyti
BIAR2020-05-24 23.00METAR BIAR 242300Z 19008KT 130V250 9999 SCT056 08/03 Q0996 RMK WIND VADLAHEIDI 20026KT
BIAR2020-05-24 22.00METAR BIAR 242200Z 21004KT 190V260 9999 -SN OVC036 08/06 Q0996 RMK WIND VADLAHEIDI 14319KT
BIAR2020-05-24 21.00METAR BIAR 242100Z 18005KT 150V220 9999 RA BKN039 OVC046 08/06 Q0996 RMK WIND VADLAHEIDI 13319KT
BIEG2020-05-24 23.00METAR BIEG 242300Z 19018KT 9999 FEW041 SCT079 BKN130 10/05 Q0998
BIEG2020-05-24 22.00METAR BIEG 242200Z 17018KT 9999 SCT043 BKN052 OVC100 10/06 Q0998
BIEG2020-05-24 21.00METAR BIEG 242100Z 17010G20KT 9999 VCSH SCT030 BKN045 OVC052 09/06 Q0999
BIKF2020-05-24 23.30METAR BIKF 242330Z 15009KT 9999 FEW025TCU SCT044 05/03 Q0997
BIKF2020-05-24 23.00METAR BIKF 242300Z 15008KT 9999 FEW024TCU 05/03 Q0997
BIKF2020-05-24 22.30METAR BIKF 242230Z 16008KT 9999 FEW024TCU 05/03 Q0997
BIKF2020-05-24 22.00METAR BIKF 242200Z 17009KT 9999 FEW022 06/04 Q0997
BIKF2020-05-24 21.30METAR BIKF 242130Z 19010KT 9999 FEW023 07/04 Q0997
BIKF2020-05-24 21.00METAR BIKF 242100Z 19012KT 9999 FEW019 07/04 Q0997
BIRK2020-05-24 23.00METAR BIRK 242300Z 14007KT 9999 FEW025 SCT140 06/02 Q0998
BIRK2020-05-24 22.00METAR BIRK 242200Z 16009KT 9999 FEW025 07/03 Q0998
BIRK2020-05-24 21.00METAR BIRK 242100Z 16011KT 9999 FEW028 07/03 Q0997

Textaspár eru skrifaðar af vakthafandi veðurfræðingi á Veðurstofu Íslands.




Aðrir tengdir vefir



Þetta vefsvæði byggir á Eplica